M I D A S
Marine Information and Data Acquisition System
Tripno 1781 of the Zeeleeuw from 2009-09-21 06:46:06 to 2009-09-21 15:45:26
Back to CruiseResearch ActivitiesStationsMapUnderway DataData graphs

EquipmentUnitsComment
TimeDGPSUTC
LatitudeDGPSDM.mWGS84
LongitudeDGPSDM.mWGS84
HeadingGyrodeg 
SOGDGPSknotsSpeed over ground
COGDGPSdegCourse over ground
DepthEcho soundermeters200 kHz
Missing or incorrect values are displayed as -999
Navigation data collected by the RV Zeeleeuw from 2009-09-21 06:50:00 to 2009-09-21 15:55:05
                                                                                    Next 1000 lines
Time Latitude Longitude Heading SOG COG Depth
2009-09-21 06:50:10 51°13.662 2°55.954 111.7 1.2 287 6.7
2009-09-21 06:50:15 51°13.662 2°55.951 111.6 1.6 290 6.7
2009-09-21 06:50:20 51°13.663 2°55.947 111.8 1.9 290 6.6
2009-09-21 06:50:26 51°13.664 2°55.941 112.5 2.2 292 -999
2009-09-21 06:50:31 51°13.666 2°55.936 113 2.5 293 -999
2009-09-21 06:50:37 51°13.667 2°55.93 113.5 2.6 295 -999
2009-09-21 06:50:43 51°13.669 2°55.923 113.3 2.8 293 -999
2009-09-21 06:50:48 51°13.671 2°55.917 112.4 3.1 294 -999
2009-09-21 06:50:54 51°13.673 2°55.909 111.7 3.3 293 -999
2009-09-21 06:50:59 51°13.675 2°55.902 111.7 3.4 292 -999
2009-09-21 06:51:04 51°13.677 2°55.894 111.2 3.6 293 -999
2009-09-21 06:51:09 51°13.679 2°55.887 110.7 3.7 291 -999
2009-09-21 06:51:14 51°13.68 2°55.879 109.7 3.7 290 -999
2009-09-21 06:51:19 51°13.682 2°55.871 108.2 3.8 288 -999
2009-09-21 06:51:24 51°13.683 2°55.863 106.5 3.7 288 -999
2009-09-21 06:51:29 51°13.685 2°55.856 104.8 3.7 286 -999
2009-09-21 06:51:34 51°13.686 2°55.848 103.2 3.7 285 -999
2009-09-21 06:51:39 51°13.688 2°55.84 101.7 3.7 283 -999
2009-09-21 06:51:44 51°13.689 2°55.832 100.1 3.6 282 -999
2009-09-21 06:51:49 51°13.691 2°55.824 98.6 3.6 281 -999
2009-09-21 06:51:54 51°13.692 2°55.816 97.1 3.5 280 -999
2009-09-21 06:51:59 51°13.693 2°55.809 95.6 3.4 278 -999
2009-09-21 06:52:04 51°13.693 2°55.801 94.1 3.3 277 -999
2009-09-21 06:52:09 51°13.693 2°55.794 92.5 3.2 276 -999
2009-09-21 06:52:14 51°13.693 2°55.787 90.9 3.2 275 -999
2009-09-21 06:52:19 51°13.694 2°55.781 89.3 3.1 274 -999
2009-09-21 06:52:24 51°13.694 2°55.774 87.7 2.9 273 -999
2009-09-21 06:52:29 51°13.694 2°55.768 86.1 2.8 272 -999
2009-09-21 06:52:34 51°13.694 2°55.762 84.7 2.7 270 -999
2009-09-21 06:52:39 51°13.694 2°55.757 83.4 2.6 269 -999
2009-09-21 06:52:44 51°13.694 2°55.751 82.1 2.3 269 -999
2009-09-21 06:52:49 51°13.694 2°55.747 80.7 1.9 269 -999
2009-09-21 06:52:53 51°13.694 2°55.745 78.9 1.5 271 11.7
2009-09-21 06:52:58 51°13.694 2°55.742 77.1 1.1 275 11.8
2009-09-21 06:53:03 51°13.694 2°55.74 73.7 0.8 281 11.8
2009-09-21 06:53:08 51°13.694 2°55.739 70.5 0.6 291 11.8
2009-09-21 06:53:13 51°13.695 2°55.738 66.1 0.4 317 11.7
2009-09-21 06:53:18 51°13.695 2°55.738 61.7 0.5 348 11.6
2009-09-21 06:53:23 51°13.696 2°55.738 57.3 0.6 9 11.5
2009-09-21 06:53:28 51°13.697 2°55.739 52.5 0.8 13 11.5
2009-09-21 06:53:32 51°13.698 2°55.739 46.3 1 18 11.7
2009-09-21 06:53:37 51°13.7 2°55.74 42.1 1.3 16 11.7
2009-09-21 06:53:42 51°13.701 2°55.741 36.7 1.5 15 11.6
2009-09-21 06:53:47 51°13.704 2°55.742 31.1 1.5 13 11.4
2009-09-21 06:53:52 51°13.706 2°55.742 25.5 1.5 8 11.4
2009-09-21 06:53:56 51°13.707 2°55.743 20 1.3 5 11.5
2009-09-21 06:54:01 51°13.709 2°55.743 16.2 0.9 3 11.8
2009-09-21 06:54:06 51°13.709 2°55.743 13.2 0.5 348 11.7
2009-09-21 06:54:11 51°13.71 2°55.742 9.8 0.1 316 11.7
2009-09-21 06:54:16 51°13.709 2°55.743 6.7 0.3 215 11.7
2009-09-21 06:54:20 51°13.709 2°55.742 4 0.6 191 11.7
2009-09-21 06:54:25 51°13.708 2°55.742 1.5 0.8 191 11.8
2009-09-21 06:54:30 51°13.706 2°55.742 359.4 0.8 187 11.6
2009-09-21 06:54:35 51°13.705 2°55.742 357.8 0.7 187 11.5
2009-09-21 06:54:40 51°13.705 2°55.741 356.5 0.6 193 11.5
2009-09-21 06:54:45 51°13.704 2°55.741 355.3 0.2 215 6.1
2009-09-21 06:54:50 51°13.704 2°55.74 353.2 0.3 318 5.6
2009-09-21 06:54:55 51°13.705 2°55.74 349.7 0.5 317 4.8
2009-09-21 06:55:00 51°13.706 2°55.739 344.8 0.9 331 7.8
2009-09-21 06:55:05 51°13.707 2°55.737 341.2 1.3 333 11.4
2009-09-21 06:55:11 51°13.71 2°55.735 336 1.8 328 11.4
2009-09-21 06:55:16 51°13.713 2°55.732 332.3 2.2 329 11
2009-09-21 06:55:20 51°13.716 2°55.73 330.5 2.7 328 10.8
2009-09-21 06:55:25 51°13.719 2°55.726 330.2 3.1 329 10.7
2009-09-21 06:55:30 51°13.723 2°55.722 330.6 3.3 329 10.4
2009-09-21 06:55:35 51°13.727 2°55.718 330.7 3.5 329 10.4
2009-09-21 06:55:40 51°13.732 2°55.714 330.7 3.7 329 10.2
2009-09-21 06:55:45 51°13.736 2°55.71 330.7 4 329 10.5
2009-09-21 06:55:51 51°13.742 2°55.704 330.8 4.2 330 10.4
2009-09-21 06:55:55 51°13.746 2°55.7 331.1 4.4 330 10.5
2009-09-21 06:56:00 51°13.752 2°55.695 331.4 4.5 330 10.5
2009-09-21 06:56:05 51°13.758 2°55.69 331.6 4.7 330 10.2
2009-09-21 06:56:11 51°13.764 2°55.683 331.7 4.8 330 10.2
2009-09-21 06:56:16 51°13.77 2°55.678 331.7 4.9 330 10.4
2009-09-21 06:56:21 51°13.776 2°55.673 331.6 4.9 330 10.5
2009-09-21 06:56:25 51°13.781 2°55.669 331.8 4.9 330 10.4
2009-09-21 06:56:31 51°13.788 2°55.662 332.4 5 331 10.4
2009-09-21 06:56:36 51°13.794 2°55.657 333.2 5 332 10.4
2009-09-21 06:56:41 51°13.801 2°55.652 334.1 5 333 10.6
2009-09-21 06:56:45 51°13.806 2°55.649 335.2 4.9 334 10.3
2009-09-21 06:56:51 51°13.813 2°55.644 336.5 4.8 335 10.2
2009-09-21 06:56:55 51°13.818 2°55.64 338 4.7 337 10.3
2009-09-21 06:57:01 51°13.825 2°55.636 340.1 4.5 340 10.5
2009-09-21 06:57:05 51°13.829 2°55.634 342.5 4.4 342 10.3
2009-09-21 06:57:11 51°13.836 2°55.631 345.3 4.2 345 10.2
2009-09-21 06:57:15 51°13.84 2°55.629 348 4 347 10
2009-09-21 06:57:21 51°13.847 2°55.627 350.7 3.9 349 9.8
2009-09-21 06:57:25 51°13.851 2°55.626 353 3.7 351 9.5
2009-09-21 06:57:31 51°13.856 2°55.625 355.2 3.6 353 9.2
2009-09-21 06:57:36 51°13.861 2°55.624 357.1 3.5 354 9.3
2009-09-21 06:57:41 51°13.866 2°55.624 358.9 3.3 356 9.5
2009-09-21 06:57:45 51°13.869 2°55.623 0.8 3.2 358 9.5
2009-09-21 06:57:51 51°13.875 2°55.623 2.9 3.1 -999 9.6
2009-09-21 06:57:56 51°13.878 2°55.624 4.9 3 2 9.3
2009-09-21 06:58:01 51°13.883 2°55.624 7 2.9 3 8.9
2009-09-21 06:58:05 51°13.886 2°55.625 9 2.8 6 9.2
2009-09-21 06:58:11 51°13.89 2°55.626 10.9 2.8 7 9.3
2009-09-21 06:58:15 51°13.893 2°55.626 12.4 2.7 9 9.2
2009-09-21 06:58:21 51°13.897 2°55.628 13.5 2.6 9 9.2
2009-09-21 06:58:25 51°13.9 2°55.628 14.6 2.6 10 9.4
2009-09-21 06:58:31 51°13.904 2°55.63 15.4 2.5 11 9.6
2009-09-21 06:58:35 51°13.907 2°55.63 15.7 2.4 11 9.6
2009-09-21 06:58:41 51°13.911 2°55.632 15.6 2.4 11 9.8
2009-09-21 06:58:45 51°13.913 2°55.632 14.9 2.3 10 9.7
2009-09-21 06:58:50 51°13.917 2°55.633 13.9 2.3 9 9.7
2009-09-21 06:58:56 51°13.92 2°55.634 12.6 2.2 8 9.9
2009-09-21 06:59:01 51°13.923 2°55.635 11 2.2 7 9.8
2009-09-21 06:59:05 51°13.926 2°55.635 9.4 2.1 6 9.7
2009-09-21 06:59:10 51°13.929 2°55.635 7.4 2.1 5 9.9
2009-09-21 06:59:15 51°13.931 2°55.636 5.6 2 3 9.6
2009-09-21 06:59:21 51°13.935 2°55.636 3.7 2 1 9.6
2009-09-21 06:59:25 51°13.937 2°55.636 1.8 1.9 -999 9.4
2009-09-21 06:59:31 51°13.94 2°55.635 -999 1.9 358 9.1
2009-09-21 06:59:35 51°13.942 2°55.635 358.3 1.8 357 9.3
2009-09-21 06:59:41 51°13.945 2°55.635 356.9 1.8 355 9.8
2009-09-21 06:59:45 51°13.947 2°55.635 355.7 1.7 355 9.7
2009-09-21 06:59:51 51°13.949 2°55.634 354.9 1.6 354 9.5
2009-09-21 06:59:55 51°13.951 2°55.634 354.1 1.4 353 9.3
2009-09-21 07:00:00 51°13.952 2°55.633 353.1 1.2 351 9.3
2009-09-21 07:00:05 51°13.954 2°55.633 351.5 1.1 352 9.5
2009-09-21 07:00:11 51°13.955 2°55.633 350 0.9 349 9.6
2009-09-21 07:00:15 51°13.956 2°55.633 348.5 0.7 351 9.8
2009-09-21 07:00:20 51°13.957 2°55.633 347.5 0.5 349 10
2009-09-21 07:00:25 51°13.957 2°55.633 347 0.3 349 10.2
2009-09-21 07:00:31 51°13.958 2°55.633 346.4 0.1 350 10.2
2009-09-21 07:00:36 51°13.957 2°55.633 346.2 0.2 163 10.2
2009-09-21 07:00:41 51°13.957 2°55.633 345.6 0.5 165 10
2009-09-21 07:00:45 51°13.956 2°55.634 345 0.6 162 9.8
2009-09-21 07:00:51 51°13.955 2°55.634 344.3 0.5 164 9.6
2009-09-21 07:00:56 51°13.954 2°55.635 344.1 0.5 161 4.6
2009-09-21 07:01:01 51°13.954 2°55.635 343.5 0.5 163 -999
2009-09-21 07:01:06 51°13.953 2°55.635 342.8 0.4 161 -999
2009-09-21 07:01:12 51°13.953 2°55.635 342.4 0.3 168 4.7
2009-09-21 07:01:16 51°13.953 2°55.635 342.2 0.3 161 4.7
2009-09-21 07:01:21 51°13.952 2°55.635 342 0.3 168 -999
2009-09-21 07:01:27 51°13.952 2°55.635 341.8 0.3 165 4.8
2009-09-21 07:01:32 51°13.951 2°55.636 341.4 0.3 171 9.4
2009-09-21 07:01:36 51°13.951 2°55.636 341.2 0.2 165 9.3
2009-09-21 07:01:41 51°13.951 2°55.636 340.7 0.2 175 9.3
2009-09-21 07:01:46 51°13.95 2°55.636 340.3 0.2 165 9.3
2009-09-21 07:01:51 51°13.95 2°55.636 339.7 0.2 175 9.3
2009-09-21 07:01:56 51°13.95 2°55.636 339.3 0.2 165 9.3
2009-09-21 07:02:01 51°13.95 2°55.636 338.8 0.2 176 9.3
2009-09-21 07:02:05 51°13.95 2°55.636 338 0.2 166 9.4
2009-09-21 07:02:11 51°13.949 2°55.636 337.4 0.2 172 9.4
2009-09-21 07:02:16 51°13.949 2°55.636 336.9 0.2 167 9.4
2009-09-21 07:02:21 51°13.949 2°55.636 336.1 0.1 172 9.4
2009-09-21 07:02:25 51°13.949 2°55.637 335.7 0.1 161 9.4
2009-09-21 07:02:31 51°13.948 2°55.637 335 0.1 172 9.4
2009-09-21 07:02:35 51°13.948 2°55.637 334.6 0.1 154 9.5
2009-09-21 07:02:41 51°13.948 2°55.637 333.9 0.1 160 9.5
2009-09-21 07:02:45 51°13.948 2°55.637 333.3 0.1 153 9.5
2009-09-21 07:02:51 51°13.948 2°55.637 332.9 -999 139 9.5
2009-09-21 07:02:56 51°13.948 2°55.637 332.5 0.1 338 9.5
2009-09-21 07:03:01 51°13.949 2°55.637 332.4 0.4 333 9.5
2009-09-21 07:03:05 51°13.949 2°55.636 332.3 0.7 334 9.5
2009-09-21 07:03:11 51°13.951 2°55.635 332.2 0.9 333 9.4
2009-09-21 07:03:16 51°13.952 2°55.633 332 1.3 332 9.5
2009-09-21 07:03:21 51°13.954 2°55.631 331.7 1.7 331 9.5
2009-09-21 07:03:25 51°13.956 2°55.629 331.1 2.1 330 10.3
2009-09-21 07:03:30 51°13.959 2°55.626 330.3 2.4 329 10.1
2009-09-21 07:03:36 51°13.963 2°55.622 329.6 2.8 328 9.6
2009-09-21 07:03:41 51°13.967 2°55.618 329 3.3 327 10
2009-09-21 07:03:45 51°13.971 2°55.614 328.7 3.7 327 9.9
2009-09-21 07:03:50 51°13.975 2°55.61 328.6 4.1 327 9.8
2009-09-21 07:03:56 51°13.982 2°55.603 328.7 4.6 327 10.1
2009-09-21 07:04:01 51°13.988 2°55.597 328.8 5 327 10.1
2009-09-21 07:04:05 51°13.993 2°55.592 328.8 5.4 328 10.1
2009-09-21 07:04:11 51°14.001 2°55.583 328.9 5.8 328 9.9
2009-09-21 07:04:16 51°14.008 2°55.576 328.4 6.2 327 10
2009-09-21 07:04:21 51°14.016 2°55.568 327.6 6.7 326 9.9
2009-09-21 07:04:25 51°14.022 2°55.56 327 7.1 325 9.9
2009-09-21 07:04:31 51°14.032 2°55.548 325.8 7.5 323 9.8
2009-09-21 07:04:36 51°14.041 2°55.537 324.3 7.8 322 9.8
2009-09-21 07:04:41 51°14.05 2°55.527 324.1 8 323 9.8
2009-09-21 07:04:45 51°14.057 2°55.518 324.9 8.3 323 9.7
2009-09-21 07:04:51 51°14.069 2°55.504 325 8.5 323 9.7
2009-09-21 07:04:56 51°14.078 2°55.492 324.6 8.7 322 9.7
2009-09-21 07:05:01 51°14.088 2°55.48 325.2 8.9 323 9.7
2009-09-21 07:05:05 51°14.096 2°55.471 326.2 9.1 324 9.7
2009-09-21 07:05:11 51°14.109 2°55.456 325.7 9.3 323 9.7
2009-09-21 07:05:16 51°14.119 2°55.443 325 9.4 323 9.6
2009-09-21 07:05:21 51°14.13 2°55.431 325.5 9.6 324 9.6
2009-09-21 07:05:25 51°14.138 2°55.421 325.4 9.7 322 9.6
2009-09-21 07:05:31 51°14.151 2°55.405 324.7 9.7 322 4.8
2009-09-21 07:05:36 51°14.162 2°55.391 324.6 9.8 321 9.5
2009-09-21 07:05:41 51°14.172 2°55.377 323.7 9.8 320 9.6
2009-09-21 07:05:45 51°14.181 2°55.366 323.5 9.8 321 9.7
2009-09-21 07:05:51 51°14.193 2°55.349 323.4 9.9 320 9.7
2009-09-21 07:05:55 51°14.202 2°55.338 322.7 9.9 320 9.6
2009-09-21 07:06:01 51°14.214 2°55.321 321.6 9.9 318 9.7
2009-09-21 07:06:05 51°14.222 2°55.308 320 9.9 316 9.6
2009-09-21 07:06:11 51°14.234 2°55.29 317.8 10 315 9.6
2009-09-21 07:06:15 51°14.241 2°55.277 316.7 10.1 315 9.5
2009-09-21 07:06:21 51°14.253 2°55.258 317.1 10.1 315 9.6
2009-09-21 07:06:25 51°14.262 2°55.246 317.3 10.2 315 9.7
2009-09-21 07:06:31 51°14.273 2°55.226 316.4 10.2 313 9.7
2009-09-21 07:06:36 51°14.283 2°55.209 314.7 10.3 312 9.5
2009-09-21 07:06:41 51°14.292 2°55.191 313.6 10.4 311 9.9
2009-09-21 07:06:45 51°14.299 2°55.177 312.4 10.5 309 9.3
2009-09-21 07:06:51 51°14.31 2°55.155 311.7 10.6 309 9.2
2009-09-21 07:06:56 51°14.32 2°55.137 311.2 10.7 309 9.6
2009-09-21 07:07:01 51°14.329 2°55.118 310.4 10.8 308 9.8
2009-09-21 07:07:05 51°14.337 2°55.103 310.2 10.9 308 9.5
2009-09-21 07:07:11 51°14.347 2°55.079 309.9 11 307 9.4
2009-09-21 07:07:16 51°14.356 2°55.059 308.6 11.1 305 9.2
2009-09-21 07:07:21 51°14.365 2°55.038 307.4 11.1 305 8.9
2009-09-21 07:07:25 51°14.372 2°55.022 307 11.1 306 8.5
2009-09-21 07:07:30 51°14.382 2°55.004 308.7 11.1 309 8.5
2009-09-21 07:07:36 51°14.394 2°54.982 311.8 11.1 312 8.5
2009-09-21 07:07:41 51°14.405 2°54.965 315.1 11.1 315 8.6
2009-09-21 07:07:45 51°14.415 2°54.952 318.5 11.2 318 8.7
2009-09-21 07:07:50 51°14.427 2°54.936 321.7 11.2 321 8.8
2009-09-21 07:07:56 51°14.442 2°54.918 324.7 11.3 323 8.9
2009-09-21 07:08:01 51°14.455 2°54.904 327.4 11.3 325 8.9
2009-09-21 07:08:05 51°14.465 2°54.893 328.9 11.3 325 8.9
2009-09-21 07:08:10 51°14.478 2°54.878 329.3 11.4 324 8.8
2009-09-21 07:08:15 51°14.491 2°54.862 329.2 11.5 322 8.8
2009-09-21 07:08:21 51°14.506 2°54.844 329.7 11.5 323 8.9
2009-09-21 07:08:25 51°14.516 2°54.832 330.5 11.5 323 8.9
2009-09-21 07:08:30 51°14.529 2°54.818 332.3 11.5 326 8.7
2009-09-21 07:08:36 51°14.545 2°54.801 334.2 11.5 327 8.6
2009-09-21 07:08:41 51°14.558 2°54.787 334.7 11.5 326 8.7
2009-09-21 07:08:45 51°14.569 2°54.775 334.7 11.5 326 8.6
2009-09-21 07:08:51 51°14.584 2°54.758 334.4 11.5 326 8.4
2009-09-21 07:08:55 51°14.595 2°54.746 334.5 11.4 326 8.4
2009-09-21 07:09:01 51°14.611 2°54.729 334.6 11.4 325 8.5
2009-09-21 07:09:05 51°14.621 2°54.717 334 11.4 325 8.4
2009-09-21 07:09:11 51°14.637 2°54.7 333.7 11.4 325 8.4
2009-09-21 07:09:15 51°14.647 2°54.689 333.7 11.4 325 8.3
2009-09-21 07:09:20 51°14.66 2°54.674 333.6 11.4 324 8.4
2009-09-21 07:09:25 51°14.673 2°54.659 333.1 11.5 324 8.4
2009-09-21 07:09:31 51°14.688 2°54.641 332.7 11.4 324 8.4
2009-09-21 07:09:36 51°14.701 2°54.626 332.7 11.4 324 8.4
2009-09-21 07:09:41 51°14.714 2°54.612 332.8 11.4 325 8.4
2009-09-21 07:09:45 51°14.724 2°54.601 334.1 11.3 327 8.4
2009-09-21 07:09:50 51°14.737 2°54.587 334.7 11.3 326 8.4
2009-09-21 07:09:56 51°14.753 2°54.571 335.6 11.3 328 8.3
2009-09-21 07:10:01 51°14.766 2°54.558 335.9 11.3 327 8.3
2009-09-21 07:10:05 51°14.777 2°54.547 336.2 11.3 329 8.2
2009-09-21 07:10:10 51°14.79 2°54.534 336.8 11.3 328 8.2
2009-09-21 07:10:16 51°14.807 2°54.519 337.3 11.2 329 8.2
2009-09-21 07:10:21 51°14.82 2°54.507 337.4 11.2 329 8.3
2009-09-21 07:10:25 51°14.83 2°54.496 337.4 11.3 329 8.2
2009-09-21 07:10:30 51°14.844 2°54.483 337.4 11.3 329 8.2
2009-09-21 07:10:35 51°14.857 2°54.47 337.3 11.3 329 8.2
2009-09-21 07:10:41 51°14.873 2°54.455 337.3 11.3 329 8.1
2009-09-21 07:10:45 51°14.884 2°54.445 337.6 11.3 330 8.1
2009-09-21 07:10:50 51°14.897 2°54.432 337.6 11.2 330 7.9
2009-09-21 07:10:56 51°14.913 2°54.417 337.6 11.2 330 7.8
2009-09-21 07:11:01 51°14.927 2°54.404 337.7 11.1 329 7.6
2009-09-21 07:11:05 51°14.937 2°54.395 337.2 11.1 329 7.1
2009-09-21 07:11:11 51°14.953 2°54.38 337.1 11 330 7
2009-09-21 07:11:16 51°14.966 2°54.368 337.3 11 330 6.9
2009-09-21 07:11:21 51°14.979 2°54.356 337.7 10.9 330 7.1
2009-09-21 07:11:25 51°14.99 2°54.346 337.7 10.9 330 7.1
2009-09-21 07:11:31 51°15.006 2°54.332 337.8 10.9 330 6.9
2009-09-21 07:11:36 51°15.019 2°54.319 337.7 10.9 329 6.9
2009-09-21 07:11:41 51°15.032 2°54.307 337.3 10.9 329 6.9
2009-09-21 07:11:45 51°15.042 2°54.297 337.4 11 330 7.2
2009-09-21 07:11:51 51°15.058 2°54.283 338.2 11 331 7.6
2009-09-21 07:11:56 51°15.072 2°54.271 338.9 11.1 331 7.4
2009-09-21 07:12:01 51°15.086 2°54.259 339 11.2 330 5.7
2009-09-21 07:12:05 51°15.096 2°54.249 338.3 11.2 329 8
2009-09-21 07:12:10 51°15.11 2°54.236 338.2 11.2 330 8.5
2009-09-21 07:12:16 51°15.126 2°54.222 338.4 11.2 330 8.7
2009-09-21 07:12:21 51°15.139 2°54.21 338.8 11.2 330 8.9
2009-09-21 07:12:25 51°15.15 2°54.199 338.8 11.3 329 9
2009-09-21 07:12:31 51°15.167 2°54.184 338.4 11.3 330 9.1
2009-09-21 07:12:36 51°15.18 2°54.171 338.4 11.3 329 9.2
2009-09-21 07:12:41 51°15.194 2°54.159 338.4 11.3 330 9.2
2009-09-21 07:12:45 51°15.205 2°54.149 338.4 11.4 329 9.2
2009-09-21 07:12:51 51°15.221 2°54.133 338.4 11.3 330 9.3
2009-09-21 07:12:56 51°15.234 2°54.12 338.3 11.4 329 9.3
2009-09-21 07:13:01 51°15.248 2°54.107 338 11.3 329 9.4
2009-09-21 07:13:05 51°15.258 2°54.097 337.9 11.3 329 9.3
2009-09-21 07:13:11 51°15.275 2°54.081 337.9 11.3 329 9.2
2009-09-21 07:13:15 51°15.285 2°54.071 337.9 11.3 329 9.3
2009-09-21 07:13:20 51°15.299 2°54.058 337.9 11.3 330 9.2
2009-09-21 07:13:25 51°15.312 2°54.045 338.2 11.3 330 9.3
2009-09-21 07:13:31 51°15.328 2°54.03 338.1 11.3 329 9.4
2009-09-21 07:13:36 51°15.342 2°54.017 337.7 11.3 329 9.4
2009-09-21 07:13:41 51°15.355 2°54.004 337.6 11.3 329 9.4
2009-09-21 07:13:45 51°15.366 2°53.994 337.4 11.4 329 9.6
2009-09-21 07:13:51 51°15.382 2°53.979 337.6 11.4 330 9.6
2009-09-21 07:13:56 51°15.396 2°53.967 337.9 11.4 330 9.5
2009-09-21 07:14:01 51°15.41 2°53.954 338.2 11.4 330 9.6
2009-09-21 07:14:05 51°15.42 2°53.944 338.2 11.4 329 9.6
2009-09-21 07:14:11 51°15.436 2°53.928 337.6 11.4 329 9.6
2009-09-21 07:14:16 51°15.45 2°53.916 337.6 11.4 329 9.6
2009-09-21 07:14:21 51°15.463 2°53.903 337.9 11.4 330 9.7
2009-09-21 07:14:25 51°15.474 2°53.893 338.1 11.4 329 9.7
2009-09-21 07:14:31 51°15.49 2°53.877 337.8 11.4 329 9.8
2009-09-21 07:14:36 51°15.504 2°53.864 337.6 11.4 329 9.9
2009-09-21 07:14:41 51°15.517 2°53.851 337.6 11.5 329 9.9
2009-09-21 07:14:45 51°15.528 2°53.84 337.7 11.4 329 9.7
2009-09-21 07:14:51 51°15.544 2°53.825 338.3 11.4 329 9.8
2009-09-21 07:14:56 51°15.558 2°53.812 338.1 11.4 329 9.8
2009-09-21 07:15:01 51°15.572 2°53.799 338.1 11.5 330 9.8
2009-09-21 07:15:05 51°15.582 2°53.789 338.5 11.4 330 9.7
2009-09-21 07:15:11 51°15.599 2°53.773 338.6 11.5 330 9.9
2009-09-21 07:15:16 51°15.612 2°53.76 338.7 11.5 330 9.9
2009-09-21 07:15:21 51°15.626 2°53.747 338.2 11.5 329 10
2009-09-21 07:15:25 51°15.637 2°53.737 338.3 11.5 330 10
2009-09-21 07:15:31 51°15.654 2°53.721 338.3 11.5 329 9.9
2009-09-21 07:15:36 51°15.667 2°53.708 338.3 11.5 330 10
2009-09-21 07:15:41 51°15.681 2°53.695 338.3 11.5 329 10
2009-09-21 07:15:45 51°15.692 2°53.685 338.6 11.5 330 10.1
2009-09-21 07:15:50 51°15.706 2°53.672 338.5 11.5 329 9.8
2009-09-21 07:15:56 51°15.722 2°53.657 338.3 11.5 330 10
2009-09-21 07:16:01 51°15.736 2°53.643 338.2 11.5 329 9.7
2009-09-21 07:16:05 51°15.747 2°53.633 338 11.5 329 9.9
2009-09-21 07:16:11 51°15.763 2°53.618 337.8 11.5 329 9.9
2009-09-21 07:16:16 51°15.777 2°53.604 338 11.5 329 9.9
2009-09-21 07:16:21 51°15.791 2°53.591 338.1 11.5 329 9.9
2009-09-21 07:16:25 51°15.802 2°53.581 338.1 11.5 329 9.8
2009-09-21 07:16:31 51°15.818 2°53.565 338.1 11.5 329 9.9
2009-09-21 07:16:36 51°15.832 2°53.552 338.1 11.5 329 9.8
2009-09-21 07:16:41 51°15.846 2°53.54 338.3 11.5 330 9.9
2009-09-21 07:16:45 51°15.857 2°53.529 338.6 11.5 330 10.1
2009-09-21 07:16:51 51°15.874 2°53.514 338.5 11.6 330 10.1
2009-09-21 07:16:56 51°15.888 2°53.501 338.2 11.5 330 9.9
2009-09-21 07:17:01 51°15.902 2°53.488 338.2 11.6 330 10
2009-09-21 07:17:05 51°15.912 2°53.478 338.5 11.6 330 10
2009-09-21 07:17:11 51°15.929 2°53.464 338.5 11.5 331 10
2009-09-21 07:17:16 51°15.943 2°53.451 338.6 11.5 331 10.1
2009-09-21 07:17:21 51°15.957 2°53.438 338.6 11.6 330 10.1
2009-09-21 07:17:25 51°15.968 2°53.427 338.3 11.6 330 10.1
2009-09-21 07:17:31 51°15.985 2°53.412 338 11.6 330 10.1
2009-09-21 07:17:35 51°15.996 2°53.402 337.9 11.6 330 10.1
2009-09-21 07:17:41 51°16.012 2°53.386 338 11.6 330 10.2
2009-09-21 07:17:45 51°16.023 2°53.376 338 11.6 329 10.2
2009-09-21 07:17:51 51°16.04 2°53.36 338.3 11.6 330 10.2
2009-09-21 07:17:55 51°16.051 2°53.35 339 11.6 330 10.2
2009-09-21 07:18:00 51°16.065 2°53.338 339.3 11.6 331 10.2
2009-09-21 07:18:05 51°16.079 2°53.325 339.6 11.5 331 10.3
2009-09-21 07:18:11 51°16.096 2°53.311 339.7 11.5 331 10.3
2009-09-21 07:18:16 51°16.11 2°53.298 339.3 11.5 329 10.4
2009-09-21 07:18:21 51°16.124 2°53.285 338.8 11.5 330 10.3
2009-09-21 07:18:25 51°16.135 2°53.275 338.5 11.5 329 10.3
2009-09-21 07:18:31 51°16.151 2°53.259 338.3 11.5 330 10.5
2009-09-21 07:18:36 51°16.165 2°53.246 337.8 11.6 328 10.3
2009-09-21 07:18:41 51°16.179 2°53.233 337.6 11.5 329 10.5
2009-09-21 07:18:45 51°16.19 2°53.222 337.6 11.5 329 10.3
2009-09-21 07:18:51 51°16.206 2°53.206 337.6 11.5 329 10.5
2009-09-21 07:18:56 51°16.22 2°53.193 337.7 11.5 329 10.4
2009-09-21 07:19:01 51°16.233 2°53.18 338.3 11.5 330 10.3
2009-09-21 07:19:05 51°16.245 2°53.17 338.8 11.5 330 10.6
2009-09-21 07:19:11 51°16.261 2°53.156 339.5 11.4 331 10.4
2009-09-21 07:19:16 51°16.275 2°53.143 339.8 11.4 331 10.4
2009-09-21 07:19:21 51°16.289 2°53.13 339.7 11.5 330 10.5
2009-09-21 07:19:25 51°16.3 2°53.12 339 11.4 330 10.5
2009-09-21 07:19:31 51°16.316 2°53.105 338.7 11.5 330 10.5
2009-09-21 07:19:36 51°16.33 2°53.092 338.4 11.4 330 10.4
2009-09-21 07:19:41 51°16.344 2°53.08 338.4 11.4 330 10.5
2009-09-21 07:19:45 51°16.355 2°53.07 338.6 11.4 330 10.5
2009-09-21 07:19:51 51°16.371 2°53.054 338.6 11.5 330 10.3
2009-09-21 07:19:56 51°16.385 2°53.041 338 11.5 329 10.4
2009-09-21 07:20:01 51°16.399 2°53.029 338.2 11.4 330 10.3
2009-09-21 07:20:05 51°16.41 2°53.018 338.3 11.4 330 10.4
2009-09-21 07:20:11 51°16.426 2°53.003 338.2 11.4 330 10.3
2009-09-21 07:20:16 51°16.44 2°52.99 337.9 11.5 329 10.4
2009-09-21 07:20:21 51°16.453 2°52.978 338.1 11.4 330 10.2
2009-09-21 07:20:25 51°16.464 2°52.967 338.3 11.5 329 10.4
2009-09-21 07:20:31 51°16.481 2°52.952 337.9 11.4 330 10.1
2009-09-21 07:20:36 51°16.494 2°52.94 337.8 11.4 330 10.3
2009-09-21 07:20:41 51°16.508 2°52.928 338.4 11.3 331 10.2
2009-09-21 07:20:45 51°16.519 2°52.918 339.2 11.4 331 10.2
2009-09-21 07:20:51 51°16.536 2°52.903 339.2 11.4 331 10
2009-09-21 07:20:56 51°16.55 2°52.891 339.8 11.4 332 10.2
2009-09-21 07:21:01 51°16.564 2°52.879 340.4 11.4 332 10.2
2009-09-21 07:21:05 51°16.575 2°52.87 340.5 11.4 332 10.1
2009-09-21 07:21:11 51°16.592 2°52.856 340.3 11.4 332 10.1
2009-09-21 07:21:16 51°16.606 2°52.844 340.4 11.4 332 10
2009-09-21 07:21:21 51°16.62 2°52.832 340.5 11.4 332 9.9
2009-09-21 07:21:25 51°16.631 2°52.823 340.3 11.4 332 9.9
2009-09-21 07:21:30 51°16.645 2°52.811 340.2 11.4 331 9.7
2009-09-21 07:21:36 51°16.661 2°52.797 340.2 11.4 333 9.6
2009-09-21 07:21:41 51°16.676 2°52.785 341 11.4 333 9.5
2009-09-21 07:21:45 51°16.687 2°52.776 341.4 11.3 334 9.5
2009-09-21 07:21:51 51°16.704 2°52.763 341.7 11.4 334 9.3
2009-09-21 07:21:55 51°16.715 2°52.755 341.3 11.3 335 9.1
2009-09-21 07:22:01 51°16.732 2°52.742 341.3 11.2 335 9
2009-09-21 07:22:05 51°16.743 2°52.734 341.4 11.2 335 8.6
2009-09-21 07:22:10 51°16.757 2°52.723 341.4 11.1 335 8.4
2009-09-21 07:22:16 51°16.774 2°52.71 341.2 11.1 334 8.3
2009-09-21 07:22:21 51°16.788 2°52.7 340.5 11.1 334 8.3
2009-09-21 07:22:25 51°16.799 2°52.691 340 11.1 334 8.2
2009-09-21 07:22:31 51°16.815 2°52.678 339.9 11.1 334 8.4
2009-09-21 07:22:36 51°16.829 2°52.667 339.8 11.1 334 8.2
2009-09-21 07:22:41 51°16.843 2°52.657 340.6 11 336 8.1
2009-09-21 07:22:45 51°16.854 2°52.649 342.2 11.1 336 8
2009-09-21 07:22:51 51°16.871 2°52.638 342.7 11 336 7.9
2009-09-21 07:22:56 51°16.885 2°52.629 343.2 10.9 338 8.1
2009-09-21 07:23:01 51°16.899 2°52.619 343.8 11 337 8.2
2009-09-21 07:23:05 51°16.91 2°52.612 344.2 11 338 8.4
2009-09-21 07:23:11 51°16.927 2°52.601 344.6 11 338 8.4
2009-09-21 07:23:16 51°16.941 2°52.593 344.6 11 339 8.4
2009-09-21 07:23:21 51°16.955 2°52.584 344.9 11 338 8.4
2009-09-21 07:23:25 51°16.967 2°52.577 345.1 11 339 8.5
2009-09-21 07:23:30 51°16.981 2°52.568 345.3 11 339 8.4
2009-09-21 07:23:36 51°16.998 2°52.557 345.3 11 338 8.2
2009-09-21 07:23:41 51°17.012 2°52.548 345.3 11 339 8.3
2009-09-21 07:23:45 51°17.023 2°52.541 345.5 10.9 338 8.2
2009-09-21 07:23:50 51°17.037 2°52.532 345.5 10.9 339 8.3
2009-09-21 07:23:56 51°17.054 2°52.522 345.7 11 339 8.3
2009-09-21 07:24:01 51°17.069 2°52.513 346.1 11 339 8.1
2009-09-21 07:24:05 51°17.08 2°52.506 346.2 11 339 8.3
2009-09-21 07:24:10 51°17.094 2°52.497 345.9 11 339 8.2
2009-09-21 07:24:16 51°17.111 2°52.487 345.6 11 339 8.3
2009-09-21 07:24:21 51°17.126 2°52.478 345.3 11 338 8.5
2009-09-21 07:24:25 51°17.137 2°52.471 345.2 11 339 8.5
2009-09-21 07:24:30 51°17.151 2°52.462 345.6 11.1 339 8.4
2009-09-21 07:24:36 51°17.168 2°52.451 345.2 11 338 8.5
2009-09-21 07:24:41 51°17.182 2°52.442 345.1 11 338 8.5
2009-09-21 07:24:45 51°17.194 2°52.435 344.9 11 338 8.6
2009-09-21 07:24:51 51°17.211 2°52.424 344.9 11 338 8.5
2009-09-21 07:24:56 51°17.225 2°52.415 344.8 11.1 338 8.6
2009-09-21 07:25:01 51°17.239 2°52.406 344.8 11.1 338 8.7
2009-09-21 07:25:05 51°17.25 2°52.399 345 11 338 8.7
2009-09-21 07:25:11 51°17.267 2°52.388 345.4 11 339 8.8
2009-09-21 07:25:16 51°17.281 2°52.379 345.6 11.1 339 8.9
2009-09-21 07:25:21 51°17.296 2°52.37 345.4 11 338 8.9
2009-09-21 07:25:25 51°17.307 2°52.363 345.1 11.1 338 9
2009-09-21 07:25:31 51°17.324 2°52.352 345.3 11 339 8.9
2009-09-21 07:25:36 51°17.339 2°52.343 345.6 11.1 339 8.9
2009-09-21 07:25:41 51°17.353 2°52.334 345.7 11 338 8.9
2009-09-21 07:25:45 51°17.364 2°52.327 345.7 11 338 9
2009-09-21 07:25:51 51°17.381 2°52.316 345.7 11.1 338 8.9
2009-09-21 07:25:56 51°17.396 2°52.307 345.8 11.1 338 9
2009-09-21 07:26:01 51°17.41 2°52.298 345.8 11.1 338 9
2009-09-21 07:26:05 51°17.421 2°52.29 345.3 11.1 337 9
2009-09-21 07:26:10 51°17.436 2°52.281 345 11 338 9
2009-09-21 07:26:16 51°17.453 2°52.269 344.9 11.1 337 8.9
2009-09-21 07:26:21 51°17.467 2°52.26 345 11.2 338 9.2
2009-09-21 07:26:25 51°17.478 2°52.252 345 11.2 337 9.5
2009-09-21 07:26:30 51°17.493 2°52.243 344.8 11.1 337 9.9
2009-09-21 07:26:36 51°17.51 2°52.232 344.8 11.2 338 10.1
2009-09-21 07:26:41 51°17.524 2°52.222 345 11.2 338 9.7
2009-09-21 07:26:45 51°17.536 2°52.215 345.2 11.2 338 9.9
2009-09-21 07:26:51 51°17.553 2°52.204 345.6 11.1 338 9.8
2009-09-21 07:26:56 51°17.567 2°52.195 345.6 11.2 338 9.8
2009-09-21 07:27:01 51°17.581 2°52.185 345.2 11.2 338 10.1
2009-09-21 07:27:05 51°17.593 2°52.178 345.4 11.1 338 9.8
2009-09-21 07:27:11 51°17.61 2°52.167 345.4 11.1 338 9.7
2009-09-21 07:27:16 51°17.624 2°52.158 345.3 11.1 338 9.7
2009-09-21 07:27:21 51°17.638 2°52.149 345.5 11.1 338 9.6
2009-09-21 07:27:25 51°17.65 2°52.142 345.6 11.1 338 9.6
2009-09-21 07:27:31 51°17.667 2°52.131 345.4 11.1 338 9.9
2009-09-21 07:27:36 51°17.681 2°52.121 345.6 11.1 338 9.7
2009-09-21 07:27:41 51°17.695 2°52.112 345.6 11.1 338 9.9
2009-09-21 07:27:45 51°17.706 2°52.105 345.4 11.1 338 9.7
2009-09-21 07:27:51 51°17.723 2°52.094 345.4 11.1 338 10
2009-09-21 07:27:56 51°17.737 2°52.085 345.6 11 338 9.7
2009-09-21 07:28:01 51°17.751 2°52.076 345.3 11 338 9.4
2009-09-21 07:28:05 51°17.763 2°52.069 345.7 11 339 9.3
2009-09-21 07:28:11 51°17.78 2°52.058 346.2 11.1 338 9.5
2009-09-21 07:28:16 51°17.794 2°52.049 345.8 11.1 338 9.4
2009-09-21 07:28:21 51°17.808 2°52.039 345.4 11.1 337 9.4
2009-09-21 07:28:25 51°17.82 2°52.032 345.2 11.1 338 9.6
2009-09-21 07:28:30 51°17.834 2°52.023 345.2 11.1 338 9.3
2009-09-21 07:28:36 51°17.851 2°52.012 345.3 11.1 338 9.3
2009-09-21 07:28:41 51°17.865 2°52.002 345.4 11.1 337 8.9
2009-09-21 07:28:45 51°17.877 2°51.995 345.2 11 338 8.8
2009-09-21 07:28:50 51°17.891 2°51.986 345.3 11 338 8.8
2009-09-21 07:28:56 51°17.908 2°51.975 345.4 11 338 8.8
2009-09-21 07:29:01 51°17.922 2°51.965 345.6 11.1 338 8.8
2009-09-21 07:29:05 51°17.934 2°51.958 345.6 11.1 337 8.8
2009-09-21 07:29:11 51°17.951 2°51.947 345.1 11.1 338 9
2009-09-21 07:29:16 51°17.965 2°51.937 345.2 10.9 338 8.9
2009-09-21 07:29:21 51°17.979 2°51.928 345.3 11.1 338 9
2009-09-21 07:29:25 51°17.99 2°51.921 345.6 11.1 337 8.9
2009-09-21 07:29:31 51°18.008 2°51.909 345.1 11.1 338 8.9
2009-09-21 07:29:36 51°18.022 2°51.9 345.1 11.2 337 9
2009-09-21 07:29:41 51°18.036 2°51.89 345.1 11.2 338 9.2
2009-09-21 07:29:45 51°18.048 2°51.883 345.2 11.2 338 9
2009-09-21 07:29:51 51°18.065 2°51.872 345.3 11.2 338 9.1
2009-09-21 07:29:56 51°18.079 2°51.862 345.5 11.2 338 9.3
2009-09-21 07:30:01 51°18.093 2°51.853 345.5 11.2 338 9.3
2009-09-21 07:30:05 51°18.105 2°51.846 345.6 11.2 338 9.4
2009-09-21 07:30:11 51°18.122 2°51.834 345.6 11.3 338 9.3
2009-09-21 07:30:16 51°18.137 2°51.825 345.4 11.2 338 9.3
2009-09-21 07:30:21 51°18.151 2°51.815 345.2 11.2 337 9.5
2009-09-21 07:30:25 51°18.163 2°51.808 345.1 11.2 337 9.6
2009-09-21 07:30:31 51°18.18 2°51.796 345.1 11.2 337 9.5
2009-09-21 07:30:36 51°18.194 2°51.786 345 11.2 337 9.6
2009-09-21 07:30:41 51°18.209 2°51.777 345 11.2 337 9.8
2009-09-21 07:30:45 51°18.22 2°51.769 345 11.2 337 9.7
2009-09-21 07:30:50 51°18.235 2°51.76 345.5 11.2 338 9.8
2009-09-21 07:30:56 51°18.252 2°51.749 345.4 11.3 337 10.1
2009-09-21 07:31:01 51°18.267 2°51.739 345.3 11.3 338 10.1
2009-09-21 07:31:05 51°18.279 2°51.732 345.3 11.2 338 10.2
2009-09-21 07:31:10 51°18.293 2°51.722 345.5 11.3 338 10.1
2009-09-21 07:31:16 51°18.31 2°51.711 345.6 11.3 337 10.2
2009-09-21 07:31:21 51°18.325 2°51.701 345.1 11.3 337 10.2
2009-09-21 07:31:25 51°18.336 2°51.693 345.1 11.3 338 10.2
2009-09-21 07:31:31 51°18.354 2°51.681 345.3 11.3 337 10.5
2009-09-21 07:31:36 51°18.368 2°51.672 345.2 11.3 337 10.5
2009-09-21 07:31:41 51°18.382 2°51.662 345 11.3 337 10.7
2009-09-21 07:31:45 51°18.394 2°51.654 345 11.3 337 10.6
2009-09-21 07:31:51 51°18.411 2°51.643 345.5 11.3 338 10.9
2009-09-21 07:31:56 51°18.426 2°51.633 345.6 11.4 337 10.9
2009-09-21 07:32:01 51°18.44 2°51.624 345.2 11.4 337 10.9
2009-09-21 07:32:05 51°18.452 2°51.616 345.4 11.4 338 11
2009-09-21 07:32:11 51°18.47 2°51.604 345.6 11.4 337 11.1
2009-09-21 07:32:16 51°18.484 2°51.594 345.2 11.4 337 11.2
2009-09-21 07:32:21 51°18.498 2°51.584 345 11.4 337 11.2
2009-09-21 07:32:25 51°18.509 2°51.576 344.9 11.4 337 11.4
2009-09-21 07:32:31 51°18.526 2°51.564 344.9 11.4 337 11.5
2009-09-21 07:32:36 51°18.541 2°51.554 345.1 11.4 337 11.6
2009-09-21 07:32:41 51°18.555 2°51.544 345.2 11.4 337 11.6
2009-09-21 07:32:45 51°18.567 2°51.536 345.2 11.4 337 11.8
2009-09-21 07:32:51 51°18.585 2°51.525 345.6 11.4 338 11.9
2009-09-21 07:32:56 51°18.599 2°51.515 345.4 11.4 337 11.9
2009-09-21 07:33:01 51°18.614 2°51.505 345.4 11.4 337 12.1
2009-09-21 07:33:05 51°18.626 2°51.498 345.4 11.4 337 12.1
2009-09-21 07:33:11 51°18.643 2°51.486 345.4 11.3 337 12.1
2009-09-21 07:33:16 51°18.658 2°51.476 345.5 11.4 337 12.4
2009-09-21 07:33:21 51°18.672 2°51.467 345.2 11.4 337 12.3
2009-09-21 07:33:25 51°18.684 2°51.459 345.3 11.4 337 12.4
2009-09-21 07:33:31 51°18.701 2°51.447 345.4 11.3 337 12.3
2009-09-21 07:33:35 51°18.713 2°51.439 345.6 11.3 337 12.5
2009-09-21 07:33:41 51°18.73 2°51.428 345.4 11.3 337 12.6
2009-09-21 07:33:45 51°18.742 2°51.42 345.6 11.3 337 12.6
2009-09-21 07:33:51 51°18.759 2°51.408 345.6 11.3 337 12.6
2009-09-21 07:33:56 51°18.773 2°51.398 345.6 11.3 337 12.8
2009-09-21 07:34:01 51°18.787 2°51.388 345.3 11.3 336 12.7
2009-09-21 07:34:05 51°18.798 2°51.38 345.2 11.3 337 12.9
2009-09-21 07:34:11 51°18.815 2°51.368 345.2 11.2 337 12.9
2009-09-21 07:34:16 51°18.83 2°51.359 345.4 11.2 337 12.9
2009-09-21 07:34:21 51°18.844 2°51.349 345.6 11.3 337 12.9
2009-09-21 07:34:25 51°18.856 2°51.341 345.4 11.3 337 13
2009-09-21 07:34:31 51°18.873 2°51.33 345.5 11.3 336 13
2009-09-21 07:34:36 51°18.888 2°51.32 345.3 11.3 336 13
2009-09-21 07:34:41 51°18.902 2°51.31 345.1 11.3 337 13
2009-09-21 07:34:45 51°18.913 2°51.302 345.3 11.3 336 13.1
2009-09-21 07:34:51 51°18.93 2°51.289 345.2 11.3 336 13.1
2009-09-21 07:34:56 51°18.944 2°51.279 345 11.3 336 13.2
2009-09-21 07:35:01 51°18.959 2°51.269 345.2 11.3 337 13.3
2009-09-21 07:35:05 51°18.97 2°51.261 345.4 11.4 336 13.3
2009-09-21 07:35:11 51°18.987 2°51.249 345.4 11.3 336 13.4
2009-09-21 07:35:16 51°19.002 2°51.238 345.2 11.4 336 13.3
2009-09-21 07:35:21 51°19.016 2°51.228 345 11.3 336 13.3
2009-09-21 07:35:25 51°19.028 2°51.22 345.3 11.3 337 13.4
2009-09-21 07:35:30 51°19.042 2°51.21 345.3 11.4 336 13.4
2009-09-21 07:35:36 51°19.06 2°51.199 345.4 11.4 336 13.4
2009-09-21 07:35:41 51°19.075 2°51.189 345.5 11.4 336 13.5
2009-09-21 07:35:45 51°19.086 2°51.181 345.6 11.4 336 13.4
2009-09-21 07:35:51 51°19.104 2°51.169 345.4 11.4 336 13.4
2009-09-21 07:35:56 51°19.118 2°51.159 345.3 11.4 336 13.5
2009-09-21 07:36:01 51°19.132 2°51.149 345.2 11.4 336 13.5
2009-09-21 07:36:05 51°19.144 2°51.141 345.4 11.4 336 13.4
2009-09-21 07:36:11 51°19.162 2°51.129 345.4 11.4 336 13.5
2009-09-21 07:36:16 51°19.176 2°51.118 345.3 11.4 336 13.5
2009-09-21 07:36:21 51°19.19 2°51.108 345.6 11.4 336 13.6
2009-09-21 07:36:25 51°19.201 2°51.099 345.6 11.4 336 13.4
2009-09-21 07:36:31 51°19.218 2°51.087 345.3 11.4 336 13.5
2009-09-21 07:36:36 51°19.233 2°51.077 345.8 11.4 337 13.3
2009-09-21 07:36:41 51°19.247 2°51.067 346.2 11.4 337 13.4
2009-09-21 07:36:45 51°19.258 2°51.059 346.1 11.4 336 13.3
2009-09-21 07:36:51 51°19.276 2°51.047 345.9 11.4 336 13.3
2009-09-21 07:36:56 51°19.29 2°51.036 345.6 11.4 336 13.5
2009-09-21 07:37:01 51°19.305 2°51.026 345.4 11.4 336 13.3
2009-09-21 07:37:05 51°19.316 2°51.018 345.1 11.4 336 13.3
2009-09-21 07:37:11 51°19.333 2°51.006 345.2 11.4 336 13.3
2009-09-21 07:37:16 51°19.348 2°50.996 345.4 11.4 336 13.2
2009-09-21 07:37:21 51°19.363 2°50.986 345.5 11.4 336 13.1
2009-09-21 07:37:25 51°19.374 2°50.978 345.6 11.4 336 13
2009-09-21 07:37:30 51°19.389 2°50.968 345.6 11.4 337 12.9
2009-09-21 07:37:36 51°19.407 2°50.956 345.9 11.4 337 12.8
2009-09-21 07:37:41 51°19.421 2°50.946 346.4 11.4 338 13
2009-09-21 07:37:45 51°19.433 2°50.938 346.9 11.4 338 12.7
2009-09-21 07:37:50 51°19.447 2°50.929 347.2 11.4 338 12.6
2009-09-21 07:37:56 51°19.465 2°50.918 347.5 11.4 338 12.7
2009-09-21 07:38:01 51°19.479 2°50.908 347.6 11.4 339 12.4
2009-09-21 07:38:05 51°19.491 2°50.901 347.7 11.4 339 12.3
2009-09-21 07:38:11 51°19.509 2°50.89 347.7 11.5 338 12.2
2009-09-21 07:38:16 51°19.524 2°50.88 347.5 11.5 338 12
2009-09-21 07:38:21 51°19.538 2°50.871 347.4 11.5 338 11.7
2009-09-21 07:38:25 51°19.55 2°50.863 347.4 11.5 338 11.6
2009-09-21 07:38:31 51°19.568 2°50.852 347.4 11.5 338 11.5
2009-09-21 07:38:36 51°19.582 2°50.842 347.4 11.4 338 11.4
2009-09-21 07:38:41 51°19.597 2°50.832 346.8 11.4 336 11.3
2009-09-21 07:38:45 51°19.609 2°50.824 346 11.4 336 11.2
2009-09-21 07:38:51 51°19.626 2°50.811 345.8 11.4 336 10.9
2009-09-21 07:38:56 51°19.641 2°50.801 345.8 11.3 336 11
2009-09-21 07:39:01 51°19.655 2°50.791 345.6 11.3 335 10.9
2009-09-21 07:39:05 51°19.666 2°50.782 345 11.3 335 11
2009-09-21 07:39:11 51°19.683 2°50.769 344.5 11.3 334 11
2009-09-21 07:39:16 51°19.697 2°50.758 344.1 11.3 334 10.9
2009-09-21 07:39:21 51°19.711 2°50.747 344.1 11.3 334 10.9
2009-09-21 07:39:25 51°19.722 2°50.739 344.1 11.3 334 10.9
2009-09-21 07:39:30 51°19.736 2°50.728 344 11.3 334 10.8
2009-09-21 07:39:36 51°19.754 2°50.715 344.1 11.3 335 10.8
2009-09-21 07:39:41 51°19.768 2°50.704 344.2 11.3 335 10.6
2009-09-21 07:39:45 51°19.779 2°50.696 344.3 11.3 335 10.5
2009-09-21 07:39:50 51°19.793 2°50.685 344.6 11.3 335 10.4
2009-09-21 07:39:56 51°19.81 2°50.672 344.6 11.3 335 10.6
2009-09-21 07:40:01 51°19.825 2°50.661 344.8 11.4 335 10.5
2009-09-21 07:40:05 51°19.836 2°50.652 344.5 11.4 335 10.8
2009-09-21 07:40:11 51°19.853 2°50.64 344.4 11.4 335 10.9
2009-09-21 07:40:16 51°19.868 2°50.629 344.4 11.4 335 11.2
2009-09-21 07:40:21 51°19.882 2°50.618 344.7 11.4 335 11.3
2009-09-21 07:40:25 51°19.893 2°50.61 344.6 11.4 335 11.6
2009-09-21 07:40:31 51°19.91 2°50.597 344.8 11.4 335 11.8
2009-09-21 07:40:36 51°19.925 2°50.586 344.5 11.4 335 12.1
2009-09-21 07:40:41 51°19.939 2°50.575 344.3 11.5 335 12.3
2009-09-21 07:40:45 51°19.95 2°50.566 344.2 11.5 335 12.6
2009-09-21 07:40:51 51°19.968 2°50.553 344.8 11.5 335 12.7
2009-09-21 07:40:56 51°19.982 2°50.543 344.8 11.5 335 12.9
2009-09-21 07:41:01 51°19.996 2°50.532 344.8 11.5 335 13
2009-09-21 07:41:05 51°20.008 2°50.523 344.9 11.5 335 13.2
2009-09-21 07:41:11 51°20.025 2°50.51 345.2 11.5 335 13.7
2009-09-21 07:41:16 51°20.04 2°50.499 344.9 11.5 335 13.7
2009-09-21 07:41:21 51°20.054 2°50.489 344.9 11.5 335 13.8
2009-09-21 07:41:25 51°20.066 2°50.48 345 11.5 335 13.8
2009-09-21 07:41:31 51°20.083 2°50.467 344.9 11.5 335 14
2009-09-21 07:41:36 51°20.098 2°50.457 344.9 11.5 335 14.2
2009-09-21 07:41:41 51°20.112 2°50.446 344.7 11.5 335 14.2
2009-09-21 07:41:45 51°20.124 2°50.438 344.7 11.5 335 14.3
2009-09-21 07:41:50 51°20.139 2°50.427 345 11.5 336 14.3
2009-09-21 07:41:56 51°20.156 2°50.415 345.6 11.5 336 14.4
2009-09-21 07:42:01 51°20.171 2°50.404 345.6 11.5 336 14.5
2009-09-21 07:42:05 51°20.183 2°50.396 345.4 11.6 336 14.5
2009-09-21 07:42:10 51°20.198 2°50.386 345.4 11.5 336 14.5
2009-09-21 07:42:16 51°20.215 2°50.373 345.5 11.5 336 14.7
2009-09-21 07:42:21 51°20.23 2°50.362 345.6 11.5 336 14.8
2009-09-21 07:42:25 51°20.241 2°50.354 345.5 11.5 336 14.8
2009-09-21 07:42:31 51°20.259 2°50.341 345.4 11.5 336 15
2009-09-21 07:42:36 51°20.273 2°50.33 345.1 11.6 336 15.3
2009-09-21 07:42:41 51°20.287 2°50.319 345.5 11.6 336 15.4
2009-09-21 07:42:45 51°20.299 2°50.311 345.7 11.6 336 15.5
2009-09-21 07:42:51 51°20.316 2°50.298 345.6 11.5 336 15.8
2009-09-21 07:42:56 51°20.331 2°50.288 345.6 11.5 336 16.1
2009-09-21 07:43:01 51°20.346 2°50.278 345.5 11.5 336 16.3
2009-09-21 07:43:05 51°20.358 2°50.27 345.5 11.5 336 16.6
2009-09-21 07:43:11 51°20.375 2°50.257 345.2 11.5 335 16.7
2009-09-21 07:43:16 51°20.39 2°50.247 345.1 11.5 336 17
2009-09-21 07:43:21 51°20.404 2°50.236 345.2 11.5 335 17.1
2009-09-21 07:43:25 51°20.416 2°50.228 345.2 11.4 337 17.4
2009-09-21 07:43:31 51°20.433 2°50.216 345.7 11.4 336 17.6
2009-09-21 07:43:36 51°20.448 2°50.206 345.7 11.4 336 17.7
2009-09-21 07:43:41 51°20.462 2°50.195 345.6 11.4 335 18.1
2009-09-21 07:43:45 51°20.474 2°50.187 345.1 11.3 335 18.2
2009-09-21 07:43:51 51°20.491 2°50.174 345 11.3 335 18.5
2009-09-21 07:43:56 51°20.505 2°50.163 344.8 11.3 334 18.7
2009-09-21 07:44:01 51°20.519 2°50.153 344.8 11.3 335 18.8
2009-09-21 07:44:05 51°20.53 2°50.144 344.8 11.3 335 19.1
2009-09-21 07:44:10 51°20.544 2°50.133 344.8 11.2 335 19.4
2009-09-21 07:44:16 51°20.561 2°50.12 344.8 11.3 334 19.4
2009-09-21 07:44:21 51°20.576 2°50.11 345.1 11.2 336 19.6
2009-09-21 07:44:25 51°20.587 2°50.102 345.3 11.2 334 20.1
2009-09-21 07:44:30 51°20.601 2°50.091 345.5 11.2 336 20.1
2009-09-21 07:44:36 51°20.618 2°50.079 346.1 11.2 336 20.2
2009-09-21 07:44:41 51°20.632 2°50.07 347 11.2 337 20.5
2009-09-21 07:44:45 51°20.644 2°50.061 347.1 11.3 336 20.6
2009-09-21 07:44:51 51°20.661 2°50.05 347.1 11.3 337 20.6
2009-09-21 07:44:56 51°20.675 2°50.04 347.2 11.2 337 20.6
2009-09-21 07:45:01 51°20.69 2°50.03 347.4 11.2 337 21
2009-09-21 07:45:05 51°20.701 2°50.022 347.5 11.2 337 21
2009-09-21 07:45:11 51°20.718 2°50.01 347.5 11.2 336 21.1
2009-09-21 07:45:16 51°20.732 2°50 347.2 11.2 337 21.1
2009-09-21 07:45:21 51°20.747 2°49.991 347.4 11.2 337 21.1
2009-09-21 07:45:25 51°20.758 2°49.983 347.4 11.3 336 21.3
2009-09-21 07:45:31 51°20.775 2°49.971 347 11.3 336 21.2
2009-09-21 07:45:36 51°20.79 2°49.96 347.1 11.3 336 21.5
2009-09-21 07:45:41 51°20.804 2°49.951 347 11.3 337 21.3
2009-09-21 07:45:45 51°20.816 2°49.943 347 11.3 337 21.3
2009-09-21 07:45:51 51°20.833 2°49.931 346.8 11.3 336 21.5
2009-09-21 07:45:56 51°20.847 2°49.92 346.3 11.3 336 21.5
2009-09-21 07:46:01 51°20.861 2°49.909 345.5 11.3 334 21.6
2009-09-21 07:46:05 51°20.872 2°49.901 345 11.3 335 21.7
2009-09-21 07:46:11 51°20.889 2°49.887 344.9 11.3 334 21.6
2009-09-21 07:46:16 51°20.904 2°49.877 344.7 11.3 334 21.6
2009-09-21 07:46:21 51°20.918 2°49.866 344.4 11.3 334 21.6
2009-09-21 07:46:25 51°20.929 2°49.857 344.7 11.3 336 21.4
2009-09-21 07:46:30 51°20.943 2°49.847 345.4 11.3 335 21.4
2009-09-21 07:46:36 51°20.96 2°49.835 345.9 11.4 336 21.6
2009-09-21 07:46:41 51°20.975 2°49.824 346.3 11.4 336 21.3
2009-09-21 07:46:45 51°20.986 2°49.816 346.3 11.4 337 21.6
2009-09-21 07:46:51 51°21.004 2°49.804 346.4 11.4 336 21.4
2009-09-21 07:46:56 51°21.019 2°49.795 346.4 11.4 337 21.7
2009-09-21 07:47:01 51°21.033 2°49.784 346.3 11.4 336 21.4
2009-09-21 07:47:05 51°21.045 2°49.776 346.2 11.4 336 21.5
2009-09-21 07:47:11 51°21.063 2°49.764 346.2 11.5 336 21.6
2009-09-21 07:47:16 51°21.077 2°49.755 346.3 11.4 337 21.5
2009-09-21 07:47:21 51°21.091 2°49.744 346.6 11.5 336 21.2
2009-09-21 07:47:25 51°21.103 2°49.736 346.3 11.5 336 21.1
2009-09-21 07:47:31 51°21.12 2°49.723 346.3 11.5 336 21
2009-09-21 07:47:36 51°21.135 2°49.713 345.6 11.5 335 21.2
2009-09-21 07:47:41 51°21.149 2°49.702 345.8 11.5 336 21.1
2009-09-21 07:47:45 51°21.161 2°49.694 346 11.5 336 21
2009-09-21 07:47:51 51°21.178 2°49.681 345.9 11.5 336 21
2009-09-21 07:47:56 51°21.192 2°49.671 345.8 11.5 336 20.7
2009-09-21 07:48:01 51°21.207 2°49.66 346.2 11.5 336 20.8
2009-09-21 07:48:05 51°21.219 2°49.652 345.8 11.5 336 20.6
2009-09-21 07:48:11 51°21.236 2°49.639 345.6 11.5 336 20.7
2009-09-21 07:48:16 51°21.251 2°49.629 346 11.5 336 20.7
2009-09-21 07:48:21 51°21.265 2°49.619 346.1 11.6 336 20.6
2009-09-21 07:48:25 51°21.277 2°49.611 345.9 11.5 336 20.6
2009-09-21 07:48:31 51°21.294 2°49.598 346 11.6 336 20.5
2009-09-21 07:48:36 51°21.309 2°49.587 346.3 11.6 336 20.6
2009-09-21 07:48:41 51°21.324 2°49.577 346.3 11.6 336 20.6
2009-09-21 07:48:45 51°21.335 2°49.568 345.7 11.6 335 20.6
2009-09-21 07:48:50 51°21.35 2°49.558 346.1 11.6 336 20.4
2009-09-21 07:48:56 51°21.368 2°49.545 345.9 11.6 335 20.3
2009-09-21 07:49:01 51°21.383 2°49.534 345.6 11.6 335 20.4
2009-09-21 07:49:05 51°21.394 2°49.525 345.5 11.6 335 20.3
2009-09-21 07:49:11 51°21.412 2°49.513 345.7 11.6 336 20.1
2009-09-21 07:49:16 51°21.427 2°49.502 346.1 11.6 336 20
2009-09-21 07:49:21 51°21.441 2°49.491 345.9 11.7 335 20
2009-09-21 07:49:25 51°21.453 2°49.482 345.1 11.6 334 20.1
2009-09-21 07:49:31 51°21.47 2°49.469 344.8 11.6 335 20.1
2009-09-21 07:49:36 51°21.485 2°49.457 344.1 11.7 333 20.5
2009-09-21 07:49:41 51°21.499 2°49.446 343.9 11.6 334 20.3
2009-09-21 07:49:45 51°21.511 2°49.436 343.5 11.7 333 20.4
2009-09-21 07:49:51 51°21.528 2°49.422 343.4 11.6 333 20.3
2009-09-21 07:49:56 51°21.542 2°49.41 343.4 11.7 333 20.4
2009-09-21 07:50:01 51°21.557 2°49.399 343.2 11.7 334 20.7
2009-09-21 07:50:05 51°21.568 2°49.39 343.5 11.7 334 20.6
2009-09-21 07:50:11 51°21.585 2°49.376 343.6 11.7 334 20.7
2009-09-21 07:50:16 51°21.6 2°49.365 343.5 11.7 334 20.6
2009-09-21 07:50:21 51°21.615 2°49.353 343.5 11.7 334 20.8
2009-09-21 07:50:26 51°21.63 2°49.343 344.6 11.7 335 20.7
2009-09-21 07:50:31 51°21.644 2°49.332 344.8 11.7 335 20.8
2009-09-21 07:50:36 51°21.659 2°49.32 344.7 11.7 335 20.9
2009-09-21 07:50:41 51°21.674 2°49.309 344.4 11.7 335 21.3
2009-09-21 07:50:45 51°21.685 2°49.301 344.5 11.7 335 21.1
2009-09-21 07:50:51 51°21.703 2°49.287 344.3 11.7 334 21
2009-09-21 07:50:56 51°21.718 2°49.276 344.2 11.7 335 21.3
2009-09-21 07:51:01 51°21.732 2°49.265 344 11.7 334 21.5
2009-09-21 07:51:05 51°21.744 2°49.256 343.9 11.7 335 21.5
2009-09-21 07:51:11 51°21.762 2°49.243 344.3 11.7 335 21.6
2009-09-21 07:51:16 51°21.777 2°49.231 344.3 11.7 335 21.5
2009-09-21 07:51:21 51°21.791 2°49.221 344.5 11.7 335 21.4
2009-09-21 07:51:25 51°21.803 2°49.212 344.4 11.7 335 21.7
2009-09-21 07:51:31 51°21.821 2°49.199 344.6 11.7 336 21.8
2009-09-21 07:51:36 51°21.836 2°49.188 345.3 11.7 336 21.5
2009-09-21 07:51:41 51°21.851 2°49.178 345.4 11.7 336 21.7
2009-09-21 07:51:45 51°21.862 2°49.169 345.1 11.7 336 21.8
2009-09-21 07:51:51 51°21.88 2°49.156 344.8 11.7 335 21.7
2009-09-21 07:51:56 51°21.895 2°49.145 344.4 11.8 335 21.5
2009-09-21 07:52:01 51°21.91 2°49.134 344.3 11.7 335 21.4
2009-09-21 07:52:05 51°21.921 2°49.125 344.5 11.7 335 21.5
2009-09-21 07:52:11 51°21.939 2°49.112 344.3 11.7 334 21.2
2009-09-21 07:52:16 51°21.954 2°49.101 344.1 11.8 335 21.9
2009-09-21 07:52:21 51°21.969 2°49.091 344.9 11.7 336 21.7
2009-09-21 07:52:25 51°21.981 2°49.082 345.6 11.8 335 21.6
2009-09-21 07:52:31 51°21.999 2°49.069 345 11.8 335 21.7
2009-09-21 07:52:36 51°22.014 2°49.058 345 11.8 336 21.6
2009-09-21 07:52:41 51°22.028 2°49.047 345.2 11.8 335 21.6
2009-09-21 07:52:46 51°22.043 2°49.036 344.9 11.8 336 21.7
2009-09-21 07:52:51 51°22.058 2°49.025 345.1 11.8 336 21.8
2009-09-21 07:52:56 51°22.073 2°49.014 344.9 11.8 336 21.7
2009-09-21 07:53:01 51°22.088 2°49.004 345.1 11.8 336 21.7
2009-09-21 07:53:05 51°22.1 2°48.996 345.7 11.8 337 21.9
2009-09-21 07:53:11 51°22.118 2°48.983 345.1 11.9 335 21.6
2009-09-21 07:53:16 51°22.133 2°48.972 345 11.8 336 21.8
2009-09-21 07:53:21 51°22.148 2°48.961 345.2 11.8 336 22
2009-09-21 07:53:25 51°22.16 2°48.953 344.9 11.8 336 22
2009-09-21 07:53:31 51°22.178 2°48.94 345 11.8 336 21.9
2009-09-21 07:53:36 51°22.193 2°48.929 344.8 11.8 336 21.8
2009-09-21 07:53:41 51°22.208 2°48.919 344.8 11.8 336 21.9
2009-09-21 07:53:45 51°22.22 2°48.91 345.4 11.8 337 21.9
2009-09-21 07:53:51 51°22.238 2°48.898 345.6 11.8 337 21.8
2009-09-21 07:53:56 51°22.253 2°48.887 345.6 11.9 336 21.6
2009-09-21 07:54:01 51°22.268 2°48.876 344.9 11.8 336 21.1
2009-09-21 07:54:05 51°22.28 2°48.868 345.2 11.8 337 21.3
2009-09-21 07:54:11 51°22.298 2°48.855 344.8 11.8 335 20.5
2009-09-21 07:54:16 51°22.313 2°48.845 344.8 11.7 337 20
2009-09-21 07:54:21 51°22.327 2°48.835 345.3 11.7 337 19.3
2009-09-21 07:54:25 51°22.339 2°48.826 345.6 11.7 336 18.3
2009-09-21 07:54:31 51°22.357 2°48.813 345 11.6 336 16.9
2009-09-21 07:54:36 51°22.371 2°48.803 345.3 11.6 336 19.4
2009-09-21 07:54:41 51°22.386 2°48.792 344.9 11.6 335 21.1
2009-09-21 07:54:45 51°22.398 2°48.784 345.3 11.6 338 21.2
2009-09-21 07:54:51 51°22.415 2°48.771 345.3 11.6 336 21.1
2009-09-21 07:54:56 51°22.43 2°48.762 345.1 11.6 337 21.1
2009-09-21 07:55:01 51°22.445 2°48.751 345 11.6 336 20.7
2009-09-21 07:55:06 51°22.46 2°48.741 344.8 11.6 337 19.4
2009-09-21 07:55:11 51°22.476 2°48.731 344.6 11.6 336 18.8
2009-09-21 07:55:16 51°22.491 2°48.721 344.7 11.6 337 17.6
2009-09-21 07:55:21 51°22.506 2°48.711 344.9 11.5 337 17.2
2009-09-21 07:55:25 51°22.518 2°48.704 345.6 11.5 338 16.6
2009-09-21 07:55:31 51°22.535 2°48.691 345 11.5 335 16.4
2009-09-21 07:55:36 51°22.55 2°48.681 345.2 11.4 337 15.9
2009-09-21 07:55:41 51°22.564 2°48.671 344.7 11.4 335 13.2
2009-09-21 07:55:45 51°22.575 2°48.663 344.5 11.3 337 15.5
2009-09-21 07:55:50 51°22.59 2°48.652 344.7 11.3 336 16.3
2009-09-21 07:55:56 51°22.607 2°48.641 345.1 11.3 338 16.1
2009-09-21 07:56:01 51°22.622 2°48.631 345.6 11.3 336 15.8
2009-09-21 07:56:05 51°22.633 2°48.623 345.3 11.3 337 13.8
2009-09-21 07:56:11 51°22.65 2°48.611 344.8 11.2 336 14.9
2009-09-21 07:56:16 51°22.664 2°48.601 344.6 11.2 336 16.3
2009-09-21 07:56:21 51°22.679 2°48.591 344.5 11.3 336 16.7
2009-09-21 07:56:25 51°22.69 2°48.583 344.9 11.2 337 16.7
2009-09-21 07:56:31 51°22.707 2°48.571 345.1 11.2 336 15.5
2009-09-21 07:56:36 51°22.722 2°48.562 344.9 11.3 337 14.3
2009-09-21 07:56:41 51°22.736 2°48.552 345.4 11.2 337 15.1
2009-09-21 07:56:45 51°22.748 2°48.544 345.4 11.3 336 16.5
2009-09-21 07:56:51 51°22.765 2°48.532 345.1 11.3 337 17.3
2009-09-21 07:56:56 51°22.779 2°48.523 345.4 11.3 338 17.6
2009-09-21 07:57:01 51°22.794 2°48.513 346.3 11.3 338 17.6
2009-09-21 07:57:05 51°22.806 2°48.506 346.7 11.3 339 17.8
2009-09-21 07:57:11 51°22.823 2°48.494 346.3 11.3 337 17.7
2009-09-21 07:57:16 51°22.838 2°48.485 345.6 11.3 337 17.4
2009-09-21 07:57:21 51°22.852 2°48.475 345.6 11.3 336 17.3
2009-09-21 07:57:25 51°22.863 2°48.467 345.2 11.3 336 16.7
2009-09-21 07:57:31 51°22.881 2°48.454 344.9 11.3 336 15.1
2009-09-21 07:57:36 51°22.895 2°48.444 344.8 11.3 336 15.2
2009-09-21 07:57:41 51°22.909 2°48.434 345.3 11.3 337 16.6
2009-09-21 07:57:45 51°22.921 2°48.426 345.6 11.3 337 17.3
2009-09-21 07:57:51 51°22.938 2°48.415 346.6 11.3 339 17.9
2009-09-21 07:57:56 51°22.953 2°48.405 347 11.3 337 18
2009-09-21 07:58:01 51°22.967 2°48.396 346.7 11.3 339 17.5
2009-09-21 07:58:05 51°22.979 2°48.389 346.9 11.3 338 17.9
2009-09-21 07:58:10 51°22.994 2°48.379 346.9 11.3 338 18
2009-09-21 07:58:16 51°23.011 2°48.368 346.6 11.3 338 18.1
2009-09-21 07:58:21 51°23.026 2°48.359 346.8 11.3 338 18.8
2009-09-21 07:58:25 51°23.037 2°48.351 346.9 11.3 338 19
2009-09-21 07:58:31 51°23.055 2°48.34 347 11.3 338 18.9
2009-09-21 07:58:36 51°23.069 2°48.33 347 11.4 338 17.9
2009-09-21 07:58:41 51°23.084 2°48.321 346.8 11.3 337 17.6
2009-09-21 07:58:45 51°23.096 2°48.313 346.7 11.4 338 18.7
2009-09-21 07:58:51 51°23.113 2°48.301 346.4 11.4 337 19.1
2009-09-21 07:58:56 51°23.127 2°48.291 346.3 11.3 338 19.4
2009-09-21 07:59:01 51°23.142 2°48.281 346.6 11.4 337 19.8
2009-09-21 07:59:05 51°23.154 2°48.274 346.5 11.3 337 19.1
2009-09-21 07:59:11 51°23.171 2°48.261 346.5 11.4 336 17.3
2009-09-21 07:59:16 51°23.185 2°48.251 346.3 11.3 336 17.7
2009-09-21 07:59:21 51°23.2 2°48.24 345.8 11.4 335 18.2
2009-09-21 07:59:25 51°23.211 2°48.232 345.9 11.4 336 18.4
2009-09-21 07:59:31 51°23.228 2°48.22 346.1 11.3 335 18.4
2009-09-21 07:59:36 51°23.243 2°48.21 346.1 11.4 336 18.5
2009-09-21 07:59:41 51°23.257 2°48.199 346.1 11.4 335 19.1
2009-09-21 07:59:45 51°23.268 2°48.19 345.1 11.4 335 19.5
2009-09-21 07:59:51 51°23.285 2°48.177 345.2 11.3 335 19.3
2009-09-21 07:59:56 51°23.3 2°48.166 344.8 11.4 334 19.7
2009-09-21 08:00:01 51°23.314 2°48.156 344.5 11.3 335 19.7
2009-09-21 08:00:05 51°23.325 2°48.147 345 11.3 335 19.7
2009-09-21 08:00:11 51°23.342 2°48.134 345.3 11.4 334 19.7
2009-09-21 08:00:16 51°23.356 2°48.123 344.8 11.4 335 19.9
2009-09-21 08:00:21 51°23.371 2°48.112 344.6 11.4 334 19.6
2009-09-21 08:00:25 51°23.382 2°48.103 344.1 11.4 334 19.8
2009-09-21 08:00:30 51°23.396 2°48.093 344.6 11.4 336 19.8
2009-09-21 08:00:36 51°23.414 2°48.08 344.9 11.4 335 19.9
2009-09-21 08:00:41 51°23.428 2°48.07 345.3 11.4 336 19.5
2009-09-21 08:00:45 51°23.439 2°48.061 345.7 11.4 335 19.3
2009-09-21 08:00:51 51°23.457 2°48.049 345.6 11.4 335 19.3
2009-09-21 08:00:56 51°23.471 2°48.038 345.2 11.5 334 19.2
2009-09-21 08:01:01 51°23.485 2°48.027 344.8 11.4 335 19.4
2009-09-21 08:01:05 51°23.497 2°48.018 344.4 11.4 334 19.7
2009-09-21 08:01:11 51°23.514 2°48.005 344.3 11.5 335 19.9
2009-09-21 08:01:16 51°23.529 2°47.994 344.7 11.5 335 19.8
2009-09-21 08:01:21 51°23.543 2°47.984 345.5 11.5 336 19.2
2009-09-21 08:01:25 51°23.555 2°47.976 345.6 11.5 335 18.6
2009-09-21 08:01:31 51°23.572 2°47.963 345.6 11.5 335 18.1
2009-09-21 08:01:36 51°23.587 2°47.952 345.6 11.5 335 17.6
2009-09-21 08:01:41 51°23.601 2°47.942 345.6 11.5 335 18.3
2009-09-21 08:01:45 51°23.613 2°47.933 345.8 11.4 336 18.6
2009-09-21 08:01:51 51°23.63 2°47.921 346.3 11.5 336 18.9
2009-09-21 08:01:56 51°23.645 2°47.911 346.3 11.5 336 18.7
2009-09-21 08:02:01 51°23.659 2°47.9 346.3 11.5 336 18.5
2009-09-21 08:02:05 51°23.671 2°47.892 346.4 11.5 336 18.6
2009-09-21 08:02:11 51°23.688 2°47.879 346.6 11.5 335 17.9
2009-09-21 08:02:16 51°23.703 2°47.868 345.6 11.5 334 16.7
2009-09-21 08:02:21 51°23.717 2°47.856 345 11.5 334 16.9
2009-09-21 08:02:25 51°23.728 2°47.848 344.8 11.5 334 18.5
2009-09-21 08:02:31 51°23.746 2°47.835 345.4 11.5 335 19.1
2009-09-21 08:02:36 51°23.76 2°47.824 345.5 11.6 334 19.5
2009-09-21 08:02:41 51°23.775 2°47.814 345.5 11.5 336 20
2009-09-21 08:02:45 51°23.786 2°47.805 346.1 11.4 335 20.6
2009-09-21 08:02:50 51°23.801 2°47.795 346.1 11.5 336 20.9
2009-09-21 08:02:56 51°23.818 2°47.782 346.1 11.4 336 20.9
2009-09-21 08:03:01 51°23.832 2°47.771 345.8 11.4 335 21.8
2009-09-21 08:03:05 51°23.844 2°47.763 345.6 11.4 336 22
2009-09-21 08:03:11 51°23.861 2°47.75 345.6 11.5 335 22.3
2009-09-21 08:03:16 51°23.876 2°47.74 345.6 11.4 336 22.3
2009-09-21 08:03:21 51°23.89 2°47.73 346 11.4 335 22.5
2009-09-21 08:03:25 51°23.902 2°47.721 346.1 11.4 336 22.8
2009-09-21 08:03:31 51°23.919 2°47.708 345.9 11.5 335 22.4
2009-09-21 08:03:36 51°23.934 2°47.698 345.8 11.5 336 22.4
2009-09-21 08:03:41 51°23.948 2°47.687 345.7 11.4 335 22.1
2009-09-21 08:03:45 51°23.959 2°47.679 346.1 11.4 336 22.3
2009-09-21 08:03:51 51°23.977 2°47.667 346.3 11.4 335 22.4
2009-09-21 08:03:56 51°23.991 2°47.656 346.3 11.4 335 22.1
2009-09-21 08:04:01 51°24.006 2°47.645 345.7 11.5 335 22.6
2009-09-21 08:04:05 51°24.018 2°47.637 345.6 11.4 336 22.3
2009-09-21 08:04:11 51°24.035 2°47.624 345.8 11.5 336 22.6
2009-09-21 08:04:16 51°24.049 2°47.613 345.8 11.4 335 22.7
2009-09-21 08:04:21 51°24.064 2°47.603 345.7 11.4 336 23
2009-09-21 08:04:25 51°24.075 2°47.595 346.1 11.5 336 22.9
2009-09-21 08:04:31 51°24.093 2°47.582 346.1 11.4 335 22.9
2009-09-21 08:04:36 51°24.107 2°47.571 345.7 11.5 335 22.9
2009-09-21 08:04:41 51°24.122 2°47.561 345.5 11.4 335 22.5
2009-09-21 08:04:45 51°24.133 2°47.552 345.4 11.5 335 21.5
2009-09-21 08:04:50 51°24.148 2°47.542 345.6 11.4 336 22.1
2009-09-21 08:04:56 51°24.165 2°47.529 346.1 11.4 335 21.2
2009-09-21 08:05:01 51°24.179 2°47.518 345.9 11.4 335 21.6
2009-09-21 08:05:05 51°24.191 2°47.51 345.7 11.4 335 20.9
2009-09-21 08:05:11 51°24.208 2°47.497 345.6 11.4 335 21.5
2009-09-21 08:05:16 51°24.223 2°47.486 345.4 11.4 335 22.2
2009-09-21 08:05:21 51°24.237 2°47.475 345.6 11.4 335 22.1
2009-09-21 08:05:25 51°24.248 2°47.466 345.8 11.4 335 21.6
2009-09-21 08:05:31 51°24.266 2°47.453 346 11.4 335 22
2009-09-21 08:05:36 51°24.28 2°47.442 345.7 11.4 335 24
2009-09-21 08:05:41 51°24.294 2°47.432 345.7 11.4 335 25.1
2009-09-21 08:05:45 51°24.305 2°47.423 345.8 11.4 335 25
2009-09-21 08:05:51 51°24.323 2°47.411 346.2 11.4 336 25.2
2009-09-21 08:05:56 51°24.337 2°47.4 346 11.4 335 25.4
2009-09-21 08:06:01 51°24.351 2°47.39 345.8 11.4 336 25.6
2009-09-21 08:06:05 51°24.363 2°47.381 345.6 11.4 334 25.7
2009-09-21 08:06:11 51°24.38 2°47.369 345.4 11.4 336 26.3
2009-09-21 08:06:16 51°24.395 2°47.358 345.6 11.4 335 26.8
2009-09-21 08:06:21 51°24.409 2°47.348 345.4 11.5 335 27.3
2009-09-21 08:06:25 51°24.42 2°47.339 345.3 11.5 335 27.2
2009-09-21 08:06:31 51°24.438 2°47.326 345.5 11.4 335 27.5
2009-09-21 08:06:36 51°24.452 2°47.315 345.5 11.5 335 27.7
2009-09-21 08:06:41 51°24.466 2°47.304 345.5 11.4 335 28.2
2009-09-21 08:06:45 51°24.478 2°47.296 345.6 11.4 335 28.6
2009-09-21 08:06:51 51°24.495 2°47.283 345.8 11.4 335 28.9
2009-09-21 08:06:56 51°24.51 2°47.272 345.6 11.4 335 29.1
2009-09-21 08:07:01 51°24.524 2°47.261 345.6 11.5 335 29.3
2009-09-21 08:07:05 51°24.536 2°47.253 345.7 11.4 335 28.9
2009-09-21 08:07:10 51°24.55 2°47.242 345.9 11.4 335 29
2009-09-21 08:07:16 51°24.567 2°47.23 345.9 11.4 335 29.5
2009-09-21 08:07:21 51°24.581 2°47.219 345.5 11.4 335 29.4
2009-09-21 08:07:25 51°24.593 2°47.21 345.4 11.4 335 29.5
2009-09-21 08:07:31 51°24.61 2°47.197 345.5 11.4 335 29.6
2009-09-21 08:07:36 51°24.624 2°47.186 345.2 11.4 334 29.3
2009-09-21 08:07:41 51°24.639 2°47.175 345.2 11.4 335 29.1
2009-09-21 08:07:45 51°24.65 2°47.167 345.3 11.5 335 28.8
2009-09-21 08:07:51 51°24.667 2°47.153 345.1 11.4 334 28.8
2009-09-21 08:07:56 51°24.681 2°47.142 345 11.4 335 29.2
2009-09-21 08:08:01 51°24.696 2°47.132 345.1 11.5 334 29.3
2009-09-21 08:08:05 51°24.707 2°47.123 345 11.4 334 28.8
2009-09-21 08:08:11 51°24.724 2°47.109 344.8 11.4 334 29.1
2009-09-21 08:08:16 51°24.739 2°47.099 345.2 11.4 335 28.9
2009-09-21 08:08:21 51°24.753 2°47.088 345.5 11.5 335 28.4
2009-09-21 08:08:25 51°24.765 2°47.079 345.5 11.4 334 28
2009-09-21 08:08:31 51°24.782 2°47.066 345.1 11.5 334 27.1
2009-09-21 08:08:36 51°24.796 2°47.055 345.3 11.4 334 27.2
2009-09-21 08:08:41 51°24.81 2°47.043 345.2 11.4 334 27.5
2009-09-21 08:08:45 51°24.821 2°47.034 344.9 11.4 334 27.9
2009-09-21 08:08:51 51°24.838 2°47.022 345.3 11.4 335 28.2
2009-09-21 08:08:56 51°24.852 2°47.011 345.4 11.3 334 27.9
2009-09-21 08:09:01 51°24.867 2°47 345.2 11.3 334 27.4
2009-09-21 08:09:05 51°24.878 2°46.991 344.4 11.3 333 27.1
2009-09-21 08:09:11 51°24.894 2°46.977 344.1 11.2 334 27
2009-09-21 08:09:16 51°24.909 2°46.966 343.8 11.3 333 27.2
2009-09-21 08:09:21 51°24.923 2°46.955 344.2 11.3 335 26.2
2009-09-21 08:09:25 51°24.934 2°46.947 344.9 11.3 334 25.1
2009-09-21 08:09:30 51°24.948 2°46.936 345 11.3 335 24
2009-09-21 08:09:36 51°24.965 2°46.923 345.2 11.3 335 23.7
2009-09-21 08:09:41 51°24.979 2°46.913 345.3 11.3 335 23.7
2009-09-21 08:09:45 51°24.99 2°46.905 345.4 11.2 335 23.3
2009-09-21 08:09:51 51°25.007 2°46.892 345.5 11.2 335 23.7
2009-09-21 08:09:56 51°25.021 2°46.881 345.6 11.2 335 23.5
2009-09-21 08:10:01 51°25.035 2°46.871 345.6 11.2 335 23.6
2009-09-21 08:10:05 51°25.047 2°46.862 345.6 11.2 335 23.7
2009-09-21 08:10:11 51°25.064 2°46.85 345.6 11.2 335 23.4
2009-09-21 08:10:16 51°25.078 2°46.839 345.5 11.2 335 23.4
2009-09-21 08:10:21 51°25.092 2°46.828 345.3 11.2 335 23.2
2009-09-21 08:10:25 51°25.103 2°46.82 345.4 11.2 335 23.3
2009-09-21 08:10:31 51°25.12 2°46.807 345.3 11.2 335 23.3
2009-09-21 08:10:36 51°25.134 2°46.797 345.2 11.2 335 23.6
2009-09-21 08:10:41 51°25.148 2°46.786 345.6 11.2 335 23.3
2009-09-21 08:10:45 51°25.159 2°46.778 345.5 11.2 335 23.5
2009-09-21 08:10:51 51°25.176 2°46.764 345.1 11.3 334 23.6
2009-09-21 08:10:56 51°25.19 2°46.754 345.3 11.3 335 23.6
2009-09-21 08:11:01 51°25.204 2°46.743 345.6 11.2 335 23.6
2009-09-21 08:11:05 51°25.216 2°46.735 345.3 11.2 335 23.7
2009-09-21 08:11:11 51°25.233 2°46.722 345.5 11.2 335 23.5
2009-09-21 08:11:16 51°25.247 2°46.712 345.6 11.2 335 23.7
2009-09-21 08:11:21 51°25.261 2°46.701 345.8 11.2 336 23.5
2009-09-21 08:11:25 51°25.272 2°46.693 345.8 11.3 335 23.4
2009-09-21 08:11:31 51°25.289 2°46.68 345.6 11.2 335 23.4
2009-09-21 08:11:36 51°25.303 2°46.67 345.6 11.2 335 23.2
2009-09-21 08:11:41 51°25.317 2°46.659 345.6 11.2 335 23.5
2009-09-21 08:11:45 51°25.329 2°46.651 345.5 11.3 334 23.6
2009-09-21 08:11:51 51°25.346 2°46.639 345.3 11.2 336 23.5
2009-09-21 08:11:56 51°25.36 2°46.628 345.6 11.3 335 23.4
2009-09-21 08:12:01 51°25.374 2°46.617 345.6 11.2 335 23.9
2009-09-21 08:12:05 51°25.385 2°46.608 345.5 11.3 335 24.2
2009-09-21 08:12:11 51°25.402 2°46.596 345.5 11.3 335 23.6
2009-09-21 08:12:16 51°25.416 2°46.585 345.4 11.3 335 23.5
2009-09-21 08:12:21 51°25.431 2°46.575 345.4 11.2 335 22.3
2009-09-21 08:12:25 51°25.442 2°46.566 345.5 11.2 335 22.9
2009-09-21 08:12:31 51°25.459 2°46.553 345.6 11.2 334 22.5
2009-09-21 08:12:36 51°25.473 2°46.543 345.2 11.2 335 22.3
2009-09-21 08:12:41 51°25.487 2°46.532 345.2 11.1 335 22
2009-09-21 08:12:45 51°25.498 2°46.523 344.8 11.2 333 20.8
2009-09-21 08:12:51 51°25.515 2°46.51 344.1 11.2 334 21.3
2009-09-21 08:12:56 51°25.528 2°46.499 343.9 11.2 333 22.3
2009-09-21 08:13:01 51°25.542 2°46.488 343.5 11.2 333 23.2
2009-09-21 08:13:05 51°25.554 2°46.48 344.3 11.2 335 23.3
2009-09-21 08:13:11 51°25.57 2°46.467 344.8 11.2 334 23.4
2009-09-21 08:13:16 51°25.584 2°46.456 344.7 11.1 335 22.2
2009-09-21 08:13:21 51°25.598 2°46.444 344.1 11.2 333 20.4